Time;durP1;ratioP1;P1;durP2;ratioP2;P2;SDS_P1;SDS_P2;PMS_P1;PMS_P2;Temp;Humidity;BMP_temperature;BMP_pressure;BME280_temperature;BME280_humidity;BME280_pressure;Samples;Min_cycle;Max_cycle;Signal;HPM_P1;HPM_P2
2023/06/21 00:02:10;;;;;;;4.03;3.45;;;22.20;99.90;;;;;;5074742;28;20165;-48
2023/06/21 00:04:37;;;;;;;6.22;4.05;;;;;;;;;;5091353;28;20635;-48
2023/06/21 00:07:09;;;;;;;4.05;3.65;;;22.00;99.90;;;;;;5091596;28;20177;-48
2023/06/21 00:09:36;;;;;;;4.55;3.58;;;;;;;;;;5091716;28;20201;-48
2023/06/21 00:12:03;;;;;;;5.55;3.90;;;;;;;;;;5091994;28;20556;-49
2023/06/21 00:14:32;;;;;;;4.47;3.42;;;22.10;99.90;;;;;;5091977;28;20196;-49
2023/06/21 00:17:00;;;;;;;6.00;3.90;;;22.10;99.90;;;;;;5073577;28;20169;-49
2023/06/21 00:19:30;;;;;;;4.65;4.05;;;;;;;;;;5092023;28;20176;-48
2023/06/21 00:21:58;;;;;;;4.03;3.53;;;;;;;;;;5076322;28;20247;-48
2023/06/21 00:24:29;;;;;;;3.95;3.28;;;22.10;99.90;;;;;;5095731;28;20162;-48
2023/06/21 00:26:57;;;;;;;5.47;3.80;;;;;;;;;;5095770;28;20177;-48
2023/06/21 00:29:24;;;;;;;7.15;3.65;;;;;;;;;;5095227;28;20254;-48
2023/06/21 00:31:50;;;;;;;3.83;3.53;;;22.10;99.90;;;;;;5094529;28;20165;-49
2023/06/21 00:34:16;;;;;;;3.72;3.40;;;22.00;99.90;;;;;;5094708;28;20173;-48
2023/06/21 00:36:42;;;;;;;3.40;3.10;;;;;;;;;;5094378;28;20574;-48
2023/06/21 00:39:09;;;;;;;3.92;3.20;;;22.10;99.90;;;;;;5094274;28;20532;-48
2023/06/21 00:41:35;;;;;;;6.45;3.70;;;22.10;99.90;;;;;;5094516;28;20178;-48
2023/06/21 00:44:01;;;;;;;3.83;3.53;;;22.10;99.90;;;;;;5094121;28;20169;-48
2023/06/21 00:46:27;;;;;;;3.95;3.33;;;;;;;;;;5094182;28;20524;-48
2023/06/21 00:48:53;;;;;;;5.07;3.55;;;22.10;99.90;;;;;;5094715;28;20201;-49
2023/06/21 00:51:19;;;;;;;5.18;3.78;;;22.20;99.90;;;;;;5094085;28;20162;-48
2023/06/21 00:53:45;;;;;;;6.72;4.05;;;22.10;99.90;;;;;;5093963;28;20185;-48
2023/06/21 00:56:11;;;;;;;4.13;3.72;;;21.90;99.90;;;;;;5093871;28;20158;-48
2023/06/21 00:58:36;;;;;;;4.05;3.65;;;22.00;99.90;;;;;;5093818;28;20173;-49
2023/06/21 01:01:02;;;;;;;4.88;3.72;;;;;;;;;;5093747;28;20583;-48
2023/06/21 01:03:28;;;;;;;4.15;3.75;;;21.80;99.90;;;;;;5093903;28;20161;-48
2023/06/21 01:06:20;;;;;;;5.18;3.35;;;21.80;99.90;;;;;;5094145;28;20628;-48
2023/06/21 01:09:13;;;;;;;4.78;3.72;;;21.90;99.90;;;;;;5093452;28;20220;-49
2023/06/21 01:12:34;;;;;;;5.20;4.05;;;21.90;99.90;;;;;;5093724;28;20191;-48
2023/06/21 01:15:11;;;;;;;4.97;3.72;;;21.80;99.90;;;;;;5011648;28;20164;-49
2023/06/21 01:17:40;;;;;;;5.00;3.70;;;21.70;99.90;;;;;;5067241;28;20181;-49
2023/06/21 01:20:15;;;;;;;4.20;3.35;;;21.70;99.90;;;;;;5093516;28;20510;-48
2023/06/21 01:23:18;;;;;;;4.43;3.70;;;21.60;99.90;;;;;;5093405;28;20606;-53
2023/06/21 01:25:56;;;;;;;4.10;3.15;;;21.70;99.90;;;;;;5092815;28;20633;-48
2023/06/21 01:28:28;;;;;;;5.82;3.45;;;21.70;99.90;;;;;;5094168;28;20197;-49
2023/06/21 01:30:57;;;;;;;5.30;3.83;;;;;;;;;;5094340;28;20244;-48
2023/06/21 01:33:23;;;;;;;5.38;3.45;;;;;;;;;;5093889;28;20188;-49
2023/06/21 01:35:54;;;;;;;8.63;3.65;;;21.70;99.90;;;;;;5093412;28;20661;-48
2023/06/21 01:38:20;;;;;;;6.38;3.85;;;;;;;;;;5075028;28;20177;-48
2023/06/21 01:40:47;;;;;;;4.88;3.10;;;;;;;;;;5075036;28;20806;-50
2023/06/21 01:43:15;;;;;;;3.85;3.17;;;21.60;99.90;;;;;;5093194;28;20170;-48
2023/06/21 01:45:41;;;;;;;5.35;3.47;;;21.60;99.90;;;;;;5093421;28;20186;-49
2023/06/21 01:48:08;;;;;;;5.22;3.65;;;;;;;;;;5093164;28;20222;-48
2023/06/21 01:50:36;;;;;;;4.30;3.75;;;21.60;99.90;;;;;;5093231;28;20169;-48
2023/06/21 01:53:04;;;;;;;5.60;4.13;;;;;;;;;;5075462;28;20157;-48
2023/06/21 01:55:31;;;;;;;5.18;4.00;;;;;;;;;;5074846;28;20259;-49
2023/06/21 01:57:58;;;;;;;5.10;3.47;;;;;;;;;;5093174;28;20161;-48
2023/06/21 02:00:26;;;;;;;6.57;3.75;;;21.80;99.90;;;;;;5093286;28;20161;-50
2023/06/21 02:02:56;;;;;;;4.82;3.53;;;21.50;99.90;;;;;;5093236;28;20169;-48
2023/06/21 02:05:24;;;;;;;5.63;3.60;;;;;;;;;;5074982;28;20210;-48
2023/06/21 02:07:50;;;;;;;4.30;3.85;;;;;;;;;;5092651;28;20341;-48
2023/06/21 02:10:19;;;;;;;4.22;3.85;;;;;;;;;;5092643;28;20343;-49
2023/06/21 02:12:52;;;;;;;5.63;3.72;;;21.20;99.90;;;;;;5092651;28;20168;-49
2023/06/21 02:15:19;;;;;;;5.22;3.75;;;21.10;99.90;;;;;;5092707;28;20175;-48
2023/06/21 02:17:49;;;;;;;4.30;3.90;;;21.00;99.90;;;;;;5093041;28;20169;-48
2023/06/21 02:20:19;;;;;;;4.95;3.90;;;21.00;99.90;;;;;;5092794;28;20165;-48
2023/06/21 02:22:46;;;;;;;4.07;3.65;;;20.80;99.90;;;;;;5092398;28;20166;-48
2023/06/21 02:25:13;;;;;;;4.57;3.85;;;;;;;;;;5092739;28;20164;-48
2023/06/21 02:27:40;;;;;;;3.80;3.40;;;20.70;99.90;;;;;;5092415;28;20172;-48
2023/06/21 02:30:09;;;;;;;4.18;3.58;;;20.80;99.90;;;;;;5092594;28;20209;-49
2023/06/21 02:32:35;;;;;;;9.40;3.70;;;20.80;99.90;;;;;;5092606;28;20206;-48
2023/06/21 02:35:05;;;;;;;4.10;3.67;;;21.00;99.90;;;;;;5092642;28;20646;-48
2023/06/21 02:37:32;;;;;;;4.05;3.65;;;;;;;;;;5092810;28;20168;-49
2023/06/21 02:40:05;;;;;;;5.40;4.20;;;;;;;;;;5092629;28;20161;-49
2023/06/21 02:42:32;;;;;;;5.43;3.45;;;;;;;;;;5092325;28;20165;-49
2023/06/21 02:45:00;;;;;;;6.97;3.83;;;;;;;;;;5092275;28;20173;-48
2023/06/21 02:47:28;;;;;;;7.30;3.90;;;;;;;;;;5092942;28;20158;-47
2023/06/21 02:50:02;;;;;;;4.25;3.80;;;;;;;;;;5092798;28;20204;-48
2023/06/21 02:52:38;;;;;;;5.03;3.88;;;21.20;99.90;;;;;;5092864;28;20636;-48
2023/06/21 02:55:07;;;;;;;5.93;4.00;;;21.20;99.90;;;;;;5074333;28;20261;-48
2023/06/21 02:57:35;;;;;;;5.97;4.03;;;21.10;99.90;;;;;;5074449;28;20165;-48
2023/06/21 03:00:17;;;;;;;9.85;4.45;;;21.10;99.90;;;;;;5092323;28;20214;-48
2023/06/21 03:02:44;;;;;;;9.05;4.22;;;;;;;;;;5076428;28;20169;-48
2023/06/21 03:05:23;;;;;;;11.18;3.70;;;21.00;99.90;;;;;;5092757;28;20180;-48
2023/06/21 03:07:51;;;;;;;6.65;3.80;;;21.00;99.90;;;;;;5070741;28;20213;-49
2023/06/21 03:10:29;;;;;;;;;;;;;;;;;;;;;
2023/06/21 03:13:00;;;;;;;9.30;4.07;;;;;;;;;;5067588;28;20186;-48
2023/06/21 03:15:32;;;;;;;15.23;4.80;;;;;;;;;;5073013;28;20166;-48
2023/06/21 03:18:03;;;;;;;9.23;4.35;;;20.80;99.90;;;;;;5072992;28;20172;-49
2023/06/21 03:20:34;;;;;;;8.88;4.50;;;20.70;99.90;;;;;;5054738;28;20177;-47
2023/06/21 03:23:04;;;;;;;11.95;4.43;;;20.80;99.90;;;;;;5072569;28;20172;-48
2023/06/21 03:25:32;;;;;;;8.00;4.60;;;20.80;99.90;;;;;;5071462;28;20166;-49
2023/06/21 03:28:00;;;;;;;10.70;4.10;;;;;;;;;;5070560;28;20199;-49
2023/06/21 03:30:28;;;;;;;9.68;3.97;;;20.80;99.90;;;;;;5071729;28;20206;-49
2023/06/21 03:32:59;;;;;;;10.73;4.05;;;;;;;;;;5071484;28;20166;-49
2023/06/21 03:35:44;;;;;;;5.72;4.00;;;20.80;99.90;;;;;;5070577;28;20178;-54
2023/06/21 03:38:31;;;;;;;6.75;4.25;;;20.80;99.90;;;;;;5069928;28;20170;-48
2023/06/21 03:41:02;;;;;;;6.45;4.55;;;;;;;;;;5070898;28;20663;-49
2023/06/21 03:43:40;;;;;;;;;;;;;;;;;;;;;
2023/06/21 03:46:07;;;;;;;8.77;4.43;;;;;;;;;;5071283;28;20547;-49
2023/06/21 03:48:40;;;;;;;8.43;4.95;;;21.10;99.90;;;;;;5071626;28;20229;-49
2023/06/21 03:51:28;;;;;;;4.97;4.28;;;21.10;99.90;;;;;;5070208;28;20167;-50
2023/06/21 03:54:21;;;;;;;7.70;4.43;;;21.10;99.90;;;;;;5071179;28;20185;-49
2023/06/21 03:56:51;;;;;;;8.90;5.05;;;21.20;99.90;;;;;;5073348;28;20595;-49
2023/06/21 03:59:38;;;;;;;9.73;4.53;;;21.20;99.90;;;;;;5075171;28;20194;-49
2023/06/21 04:02:31;;;;;;;10.15;4.90;;;21.20;99.90;;;;;;5075417;28;20158;-48
2023/06/21 04:05:10;;;;;;;9.25;4.47;;;;;;;;;;5075728;28;20242;-49
2023/06/21 04:11:00;;;;;;;10.20;4.78;;;;;;;;;;5087161;28;20280;-49
2023/06/21 04:13:37;;;;;;;;;;;;;;;;;;;;;
2023/06/21 04:16:16;;;;;;;9.68;5.13;;;21.50;99.90;;;;;;5090412;28;20279;-49
2023/06/21 04:18:45;;;;;;;8.40;5.57;;;;;;;;;;5077037;28;20222;-49
2023/06/21 04:21:16;;;;;;;9.80;4.90;;;21.40;99.90;;;;;;5095180;28;20257;-48
2023/06/21 04:24:08;;;;;;;13.60;5.15;;;21.20;99.90;;;;;;5095402;28;20205;-49
2023/06/21 04:26:39;;;;;;;15.45;4.85;;;21.20;99.90;;;;;;5076915;28;20218;-48
2023/06/21 04:29:40;;;;;;;;;;;;;;;;;;;;;
2023/06/21 04:32:13;;;;;;;9.10;4.60;;;21.40;99.90;;;;;;5088997;28;20177;-49
2023/06/21 04:35:00;;;;;;;7.60;5.13;;;21.60;99.90;;;;;;5095121;28;20572;-52
2023/06/21 04:37:40;;;;;;;9.68;4.75;;;21.90;99.90;;;;;;5091323;28;20272;-49
2023/06/21 04:40:21;;;;;;;10.48;5.00;;;22.00;99.90;;;;;;5095639;28;20636;-49
2023/06/21 04:43:03;;;;;;;11.25;5.38;;;22.10;99.90;;;;;;5077050;28;20219;-49
2023/06/21 04:45:33;;;;;;;9.50;5.07;;;22.40;99.90;;;;;;5094278;28;20166;-50
2023/06/21 04:48:12;;;;;;;8.45;4.78;;;22.50;99.90;;;;;;5076717;28;20536;-50
2023/06/21 04:50:54;;;;;;;7.10;4.72;;;22.60;99.90;;;;;;5094977;28;20709;-48
2023/06/21 04:53:28;;;;;;;5.95;5.35;;;22.80;99.90;;;;;;5095368;28;20214;-49
2023/06/21 04:56:01;;;;;;;5.40;4.88;;;22.80;99.90;;;;;;5077313;28;20173;-48
2023/06/21 04:58:35;;;;;;;10.70;5.80;;;;;;;;;;5094938;28;20500;-49
2023/06/21 05:01:02;;;;;;;7.90;5.78;;;;;;;;;;5076526;28;20169;-49
2023/06/21 05:03:35;;;;;;;11.02;5.47;;;22.70;99.90;;;;;;5076041;28;20584;-49
2023/06/21 05:06:20;;;;;;;9.25;5.75;;;22.80;99.90;;;;;;5093789;28;20204;-50
2023/06/21 05:08:47;;;;;;;9.90;5.63;;;;;;;;;;5071859;28;20606;-49
2023/06/21 05:11:19;;;;;;;8.73;5.82;;;;;;;;;;5072553;28;20176;-50
2023/06/21 05:14:06;;;;;;;6.45;5.57;;;22.60;99.90;;;;;;5073796;28;20534;-48
2023/06/21 05:16:37;;;;;;;7.80;5.63;;;;;;;;;;5072423;28;20589;-51
2023/06/21 05:19:03;;;;;;;9.82;5.53;;;22.90;99.90;;;;;;5072395;28;20220;-48
2023/06/21 05:21:28;;;;;;;16.40;5.70;;;22.90;99.90;;;;;;5073172;28;20166;-48
2023/06/21 05:23:54;;;;;;;8.52;5.90;;;22.80;99.90;;;;;;5073501;28;20207;-49
2023/06/21 05:26:20;;;;;;;9.65;5.88;;;22.60;99.90;;;;;;5073097;28;20227;-48
2023/06/21 05:28:45;;;;;;;8.60;5.70;;;22.60;99.90;;;;;;5073004;28;20247;-49
2023/06/21 05:31:11;;;;;;;9.13;5.63;;;22.70;99.90;;;;;;5073034;28;20629;-48
2023/06/21 05:33:36;;;;;;;7.20;5.30;;;22.60;99.90;;;;;;5072607;28;20166;-48
2023/06/21 05:36:02;;;;;;;7.63;6.15;;;22.50;99.90;;;;;;5073119;28;20169;-48
2023/06/21 05:38:28;;;;;;;7.78;5.43;;;;;;;;;;5072921;28;20170;-48
2023/06/21 05:40:53;;;;;;;7.85;5.45;;;22.60;99.90;;;;;;5073185;28;20247;-48
2023/06/21 05:43:19;;;;;;;7.82;5.47;;;22.80;99.90;;;;;;5072918;28;20173;-50
2023/06/21 05:45:44;;;;;;;7.50;5.90;;;22.70;99.90;;;;;;5072810;28;20174;-49
2023/06/21 05:48:10;;;;;;;6.35;5.75;;;22.60;99.90;;;;;;5072973;28;20173;-49
2023/06/21 05:50:35;;;;;;;11.85;5.85;;;22.70;99.90;;;;;;5072714;28;20172;-49
2023/06/21 05:53:01;;;;;;;9.25;6.28;;;22.70;99.90;;;;;;5072683;28;20176;-48
2023/06/21 05:55:27;;;;;;;10.18;5.88;;;22.90;99.90;;;;;;5072614;28;20173;-49
2023/06/21 05:57:52;;;;;;;7.18;5.45;;;22.80;99.90;;;;;;5072915;28;20168;-49
2023/06/21 06:00:18;;;;;;;7.32;5.63;;;;;;;;;;5072590;28;20166;-49
2023/06/21 06:02:45;;;;;;;7.93;6.22;;;;;;;;;;5072564;28;20162;-49
2023/06/21 06:05:11;;;;;;;8.50;6.10;;;23.00;99.90;;;;;;5072458;28;20166;-52
2023/06/21 06:07:37;;;;;;;9.45;6.50;;;23.00;99.90;;;;;;5076063;28;20220;-50
2023/06/21 06:10:04;;;;;;;10.18;6.60;;;22.90;99.90;;;;;;5092682;28;20238;-50
2023/06/21 06:12:30;;;;;;;6.93;6.22;;;23.00;99.90;;;;;;5092649;28;20187;-50
2023/06/21 06:14:56;;;;;;;9.50;5.82;;;;;;;;;;5092648;28;20256;-49
2023/06/21 06:17:21;;;;;;;11.25;6.07;;;23.00;99.90;;;;;;5092918;28;20699;-49
2023/06/21 06:19:47;;;;;;;12.05;5.85;;;23.00;99.90;;;;;;5091642;28;20173;-50
2023/06/21 06:22:12;;;;;;;13.52;6.93;;;22.90;99.90;;;;;;5092359;28;20240;-49
2023/06/21 06:24:38;;;;;;;7.00;5.93;;;23.20;99.90;;;;;;5092315;28;20219;-49
2023/06/21 06:27:04;;;;;;;12.15;6.93;;;23.40;99.90;;;;;;5092300;28;20172;-50
2023/06/21 06:29:30;;;;;;;8.48;6.20;;;23.20;99.90;;;;;;5092376;28;20550;-49
2023/06/21 06:31:56;;;;;;;9.32;6.40;;;23.20;99.90;;;;;;5092343;28;20176;-49
2023/06/21 06:34:22;;;;;;;7.78;6.35;;;23.10;99.90;;;;;;5092485;28;20165;-49
2023/06/21 06:36:47;;;;;;;9.85;6.35;;;23.30;99.90;;;;;;5091990;28;20165;-49
2023/06/21 06:39:13;;;;;;;12.13;6.47;;;23.30;99.90;;;;;;5091979;28;20165;-49
2023/06/21 06:41:39;;;;;;;9.02;6.88;;;23.30;99.90;;;;;;5091791;28;20644;-49
2023/06/21 06:44:05;;;;;;;10.32;6.97;;;23.20;99.90;;;;;;5091821;28;20211;-49
2023/06/21 06:46:30;;;;;;;9.77;6.57;;;23.50;99.90;;;;;;5092167;28;20568;-49
2023/06/21 06:48:56;;;;;;;9.60;6.65;;;23.70;99.90;;;;;;5091831;28;20551;-49
2023/06/21 06:51:23;;;;;;;11.77;6.38;;;23.90;99.90;;;;;;5092304;28;20173;-49
2023/06/21 06:53:49;;;;;;;8.45;6.88;;;;;;;;;;5091534;28;20165;-50
2023/06/21 06:56:14;;;;;;;8.00;6.50;;;23.70;99.90;;;;;;5091746;28;20175;-49
2023/06/21 06:58:40;;;;;;;8.00;6.00;;;24.00;99.90;;;;;;5091842;28;20179;-49
2023/06/21 07:01:06;;;;;;;8.20;6.55;;;24.20;99.90;;;;;;5091566;28;20180;-49
2023/06/21 07:03:32;;;;;;;7.35;6.43;;;24.20;99.90;;;;;;5091699;28;20161;-49
2023/06/21 07:05:58;;;;;;;7.57;6.35;;;24.10;99.90;;;;;;5091603;28;20240;-49
2023/06/21 07:08:24;;;;;;;10.90;6.85;;;24.20;99.90;;;;;;5091672;28;20362;-49
2023/06/21 07:10:49;;;;;;;7.78;6.82;;;24.20;99.90;;;;;;5091353;28;20624;-49
2023/06/21 07:13:15;;;;;;;9.88;6.30;;;24.30;99.90;;;;;;5091707;28;20185;-49
2023/06/21 07:15:41;;;;;;;7.75;7.05;;;;;;;;;;5090813;28;20176;-49
2023/06/21 07:18:07;;;;;;;13.70;7.18;;;;;;;;;;5090784;28;20251;-49
2023/06/21 07:20:34;;;;;;;7.65;5.72;;;24.70;99.90;;;;;;5090918;28;20161;-49
2023/06/21 07:22:59;;;;;;;7.43;6.22;;;24.60;99.90;;;;;;5090853;28;20165;-50
2023/06/21 07:25:25;;;;;;;7.75;6.32;;;;;;;;;;5091045;28;20205;-50
2023/06/21 07:27:51;;;;;;;8.82;6.72;;;;;;;;;;5090927;28;20169;-49
2023/06/21 07:30:18;;;;;;;7.80;6.70;;;25.20;99.90;;;;;;5092652;28;20200;-49
2023/06/21 07:32:43;;;;;;;10.43;6.70;;;25.00;99.90;;;;;;5095498;28;20632;-49
2023/06/21 07:35:09;;;;;;;8.65;7.40;;;25.10;99.90;;;;;;5095353;28;20187;-49
2023/06/21 07:37:34;;;;;;;11.00;7.78;;;25.50;99.90;;;;;;5095320;28;20248;-49
2023/06/21 07:40:00;;;;;;;8.77;7.90;;;25.30;99.90;;;;;;5095276;28;20176;-50
2023/06/21 07:42:26;;;;;;;7.72;7.03;;;;;;;;;;5095548;28;20173;-49
2023/06/21 07:44:55;;;;;;;13.45;6.93;;;25.80;99.90;;;;;;5095764;28;20230;-49
2023/06/21 07:47:22;;;;;;;11.57;7.97;;;25.60;99.90;;;;;;5095805;28;20161;-49
2023/06/21 07:49:48;;;;;;;8.77;7.65;;;25.70;99.90;;;;;;5095204;28;20268;-49
2023/06/21 07:52:14;;;;;;;9.73;7.40;;;26.00;99.90;;;;;;5095200;28;20616;-50
2023/06/21 07:54:39;;;;;;;8.98;8.18;;;26.30;99.90;;;;;;5095155;28;20527;-49
2023/06/21 07:57:05;;;;;;;7.88;7.07;;;26.10;99.90;;;;;;5095281;28;20169;-50
2023/06/21 07:59:33;;;;;;;6.50;5.95;;;25.90;99.90;;;;;;5095149;28;20551;-49
2023/06/21 08:01:59;;;;;;;7.80;7.10;;;26.00;99.90;;;;;;5095067;28;20173;-49
2023/06/21 08:04:24;;;;;;;9.85;7.43;;;25.90;99.90;;;;;;5095453;28;20164;-50
2023/06/21 08:06:50;;;;;;;9.48;7.50;;;25.90;99.90;;;;;;5095027;28;20169;-50
2023/06/21 08:09:16;;;;;;;8.00;7.20;;;25.90;99.90;;;;;;5094732;28;20223;-50
2023/06/21 08:11:41;;;;;;;10.75;7.72;;;26.20;99.90;;;;;;5095124;28;20176;-49
2023/06/21 08:14:07;;;;;;;9.10;8.20;;;26.30;99.90;;;;;;5094876;28;20172;-50
2023/06/21 08:16:32;;;;;;;8.82;7.40;;;26.40;99.90;;;;;;5094805;28;20562;-49
2023/06/21 08:18:59;;;;;;;10.98;8.18;;;;;;;;;;5094761;28;20165;-49
2023/06/21 08:21:25;;;;;;;8.48;7.65;;;27.10;99.90;;;;;;5095027;28;20662;-49
2023/06/21 08:23:52;;;;;;;9.30;6.97;;;27.10;99.90;;;;;;5094586;28;20168;-49
2023/06/21 08:26:17;;;;;;;8.57;7.57;;;26.70;99.90;;;;;;5094560;28;20172;-49
2023/06/21 08:28:45;;;;;;;9.23;8.35;;;26.30;99.90;;;;;;5094427;28;20189;-49
2023/06/21 08:31:11;;;;;;;8.55;7.75;;;26.20;99.90;;;;;;5094733;28;20268;-49
2023/06/21 08:33:36;;;;;;;9.65;8.55;;;26.30;99.90;;;;;;5094486;28;20648;-49
2023/06/21 08:36:02;;;;;;;8.13;7.32;;;26.70;99.90;;;;;;5094487;28;20169;-49
2023/06/21 08:38:27;;;;;;;8.27;7.47;;;26.90;99.90;;;;;;5094265;28;20157;-49
2023/06/21 08:40:59;;;;;;;9.48;7.88;;;26.80;99.90;;;;;;5094555;28;20169;-49
2023/06/21 08:43:24;;;;;;;8.50;7.43;;;26.70;99.90;;;;;;5094158;28;20581;-49
2023/06/21 08:45:51;;;;;;;8.73;7.18;;;26.70;99.90;;;;;;5094215;28;20199;-49
2023/06/21 08:48:18;;;;;;;6.80;6.20;;;26.60;99.90;;;;;;5094129;28;20164;-49
2023/06/21 08:50:44;;;;;;;8.38;7.40;;;26.60;99.90;;;;;;5094050;28;20707;-49
2023/06/21 08:53:12;;;;;;;9.65;8.75;;;27.10;99.90;;;;;;5094000;28;20259;-49
2023/06/21 08:55:39;;;;;;;8.98;8.13;;;27.00;99.90;;;;;;5094048;28;20184;-49
2023/06/21 08:58:16;;;;;;;8.05;7.35;;;27.20;99.90;;;;;;5094082;28;20711;-49
2023/06/21 09:00:47;;;;;;;9.55;8.13;;;26.90;99.90;;;;;;5094051;28;20226;-50
2023/06/21 09:03:19;;;;;;;9.43;8.02;;;27.30;99.90;;;;;;5093909;28;20161;-49
2023/06/21 09:05:53;;;;;;;9.68;7.88;;;27.60;99.90;;;;;;5093838;28;20192;-50
2023/06/21 09:08:19;;;;;;;8.00;7.20;;;27.80;99.90;;;;;;5093684;28;20624;-50
2023/06/21 09:10:48;;;;;;;10.05;7.63;;;27.70;99.90;;;;;;5093744;28;20185;-50
2023/06/21 09:13:15;;;;;;;8.52;7.45;;;27.80;99.90;;;;;;5093645;28;20637;-49
2023/06/21 09:15:41;;;;;;;8.98;7.95;;;27.50;99.90;;;;;;5093642;28;20176;-49
2023/06/21 09:18:07;;;;;;;10.77;7.65;;;27.50;99.90;;;;;;5093511;28;20164;-49
2023/06/21 09:20:33;;;;;;;8.32;7.47;;;;;;;;;;5093545;28;20165;-50
2023/06/21 09:23:00;;;;;;;8.38;7.57;;;27.80;99.90;;;;;;5093547;28;20172;-50
2023/06/21 09:25:26;;;;;;;8.02;7.30;;;28.00;99.90;;;;;;5093962;28;20251;-50
2023/06/21 09:27:53;;;;;;;9.50;7.53;;;27.80;99.90;;;;;;5093907;28;20593;-50
2023/06/21 09:30:19;;;;;;;9.10;6.97;;;27.60;99.90;;;;;;5093520;28;20223;-49
2023/06/21 09:32:46;;;;;;;9.98;7.55;;;28.10;99.90;;;;;;5093614;28;20179;-50
2023/06/21 09:35:13;;;;;;;8.95;8.05;;;28.40;99.90;;;;;;5093333;28;20163;-50
2023/06/21 09:37:39;;;;;;;7.68;7.03;;;28.50;99.90;;;;;;5093491;28;20191;-49
2023/06/21 09:40:06;;;;;;;8.60;7.28;;;;;;;;;;5093234;28;20180;-49
2023/06/21 09:42:39;;;;;;;9.95;6.88;;;28.30;99.90;;;;;;5093080;28;20171;-49
2023/06/21 09:45:12;;;;;;;9.38;7.03;;;27.90;99.90;;;;;;5093099;28;20264;-49
2023/06/21 09:47:41;;;;;;;9.85;7.60;;;27.60;99.90;;;;;;5093013;28;20636;-49
2023/06/21 09:50:09;;;;;;;9.18;6.80;;;27.80;99.90;;;;;;5092929;28;20247;-49
2023/06/21 09:52:34;;;;;;;7.53;6.75;;;27.60;99.90;;;;;;5074831;28;20169;-49
2023/06/21 09:55:02;;;;;;;9.38;7.65;;;27.80;99.90;;;;;;5092947;28;20195;-49
2023/06/21 09:57:32;;;;;;;8.48;7.32;;;27.70;99.90;;;;;;5092727;28;20252;-49
2023/06/21 10:00:05;;;;;;;9.50;7.35;;;28.20;99.90;;;;;;5092719;28;20173;-49
2023/06/21 10:02:38;;;;;;;12.27;8.05;;;28.30;99.90;;;;;;5074693;28;20645;-49
2023/06/21 10:05:04;;;;;;;9.73;7.82;;;28.30;99.90;;;;;;5092987;28;20169;-49
2023/06/21 10:07:30;;;;;;;8.25;7.53;;;28.30;99.90;;;;;;5092464;28;20172;-49
2023/06/21 10:09:56;;;;;;;9.57;8.00;;;;;;;;;;5092738;28;20315;-49
2023/06/21 10:12:21;;;;;;;7.97;7.18;;;28.20;99.90;;;;;;5092944;28;20172;-49
2023/06/21 10:14:47;;;;;;;11.55;7.82;;;28.10;99.90;;;;;;5092519;28;20267;-49
2023/06/21 10:17:15;;;;;;;11.25;8.02;;;28.10;99.90;;;;;;5092397;28;20173;-49
2023/06/21 10:19:42;;;;;;;9.23;7.47;;;27.80;99.90;;;;;;5092439;28;20201;-48
2023/06/21 10:22:08;;;;;;;14.15;8.73;;;;;;;;;;5092570;28;20168;-50
2023/06/21 10:24:46;;;;;;;11.15;8.38;;;27.60;99.90;;;;;;5092384;28;20168;-49
2023/06/21 10:27:12;;;;;;;12.02;8.63;;;27.80;99.90;;;;;;5092303;28;20173;-50
2023/06/21 10:29:41;;;;;;;10.48;7.90;;;27.50;99.90;;;;;;5092110;28;20288;-50
2023/06/21 10:32:07;;;;;;;11.07;8.07;;;;;;;;;;5092412;28;20165;-49
2023/06/21 10:34:49;;;;;;;10.23;8.40;;;27.70;99.90;;;;;;5092118;28;20169;-49
2023/06/21 10:38:01;;;;;;;12.38;8.80;;;28.20;99.90;;;;;;5092164;28;20247;-50
2023/06/21 10:40:27;;;;;;;10.90;8.80;;;28.30;99.90;;;;;;5067549;28;20554;-52
2023/06/21 10:42:55;;;;;;;11.05;7.65;;;28.20;99.90;;;;;;5092682;28;20184;-49
2023/06/21 10:45:21;;;;;;;12.45;8.43;;;28.10;99.90;;;;;;5092345;28;20214;-49
2023/06/21 10:47:47;;;;;;;8.82;7.20;;;28.20;99.90;;;;;;5091913;28;20169;-52
2023/06/21 10:50:13;;;;;;;8.02;7.03;;;28.30;99.90;;;;;;5091568;28;20635;-49
2023/06/21 10:52:40;;;;;;;8.20;7.40;;;28.20;99.90;;;;;;5091966;28;20244;-49
2023/06/21 10:55:06;;;;;;;7.60;6.75;;;28.30;99.90;;;;;;5091873;28;20176;-50
2023/06/21 10:57:34;;;;;;;11.32;7.38;;;28.40;99.90;;;;;;5091910;28;20191;-50
2023/06/21 11:00:06;;;;;;;9.02;7.20;;;28.30;99.90;;;;;;5092006;28;20529;-50
2023/06/21 11:02:32;;;;;;;10.40;7.30;;;;;;;;;;5091573;28;20259;-52
2023/06/21 11:05:20;;;;;;;9.65;7.38;;;28.70;99.90;;;;;;5090589;28;20172;-49
2023/06/21 11:07:49;;;;;;;7.95;7.18;;;28.70;99.90;;;;;;5091351;28;20688;-50
2023/06/21 11:10:14;;;;;;;8.10;6.55;;;28.70;99.90;;;;;;5091297;28;20257;-50
2023/06/21 11:12:40;;;;;;;7.88;6.35;;;28.90;99.90;;;;;;5091347;28;20168;-50
2023/06/21 11:15:06;;;;;;;6.90;6.15;;;29.10;99.90;;;;;;5091228;28;20169;-50
2023/06/21 11:17:37;;;;;;;8.13;6.70;;;28.60;99.90;;;;;;5090817;28;20161;-49
2023/06/21 11:20:22;;;;;;;12.07;6.78;;;28.30;99.90;;;;;;5089910;28;20181;-50
2023/06/21 11:23:06;;;;;;;9.40;6.28;;;28.60;99.90;;;;;;5091411;28;20173;-51
2023/06/21 11:25:35;;;;;;;9.02;6.90;;;28.80;99.90;;;;;;5091666;28;20520;-52
2023/06/21 11:28:19;;;;;;;6.53;5.93;;;28.90;99.90;;;;;;5090876;28;20192;-49
2023/06/21 11:31:03;;;;;;;9.50;5.93;;;29.00;99.90;;;;;;5091388;28;20281;-49
2023/06/21 11:33:30;;;;;;;5.35;4.93;;;29.00;99.90;;;;;;5090664;28;20248;-49
2023/06/21 11:36:07;;;;;;;7.72;6.18;;;28.80;99.90;;;;;;5091142;28;20184;-50
2023/06/21 11:38:35;;;;;;;6.18;5.65;;;29.10;99.90;;;;;;5073083;28;20513;-49
2023/06/21 11:41:01;;;;;;;6.38;5.47;;;29.10;99.90;;;;;;5091007;28;20629;-49
2023/06/21 11:43:27;;;;;;;7.15;5.05;;;28.90;99.90;;;;;;5091359;28;20169;-49
2023/06/21 11:46:00;;;;;;;6.95;5.30;;;29.00;99.90;;;;;;5091172;28;20173;-49
2023/06/21 11:48:29;;;;;;;6.80;5.57;;;29.30;99.90;;;;;;5091045;28;20183;-49
2023/06/21 11:50:56;;;;;;;6.75;5.43;;;29.50;99.90;;;;;;5091407;28;20176;-49
2023/06/21 11:53:26;;;;;;;7.70;5.43;;;29.50;99.90;;;;;;5091526;28;20164;-50
2023/06/21 11:56:02;;;;;;;5.60;4.53;;;29.60;99.90;;;;;;5091798;28;20169;-52
2023/06/21 11:58:28;;;;;;;6.97;6.20;;;29.50;99.90;;;;;;5091116;28;20186;-49
2023/06/21 12:00:55;;;;;;;8.02;5.88;;;29.60;99.90;;;;;;5073065;28;20169;-50
2023/06/21 12:03:25;;;;;;;5.90;5.25;;;29.60;99.90;;;;;;5091679;28;20536;-50
2023/06/21 12:05:58;;;;;;;5.72;5.18;;;29.60;99.90;;;;;;5091630;28;20178;-50
2023/06/21 12:08:32;;;;;;;7.85;4.75;;;29.50;99.90;;;;;;5090991;28;20273;-53
2023/06/21 12:10:59;;;;;;;4.88;4.45;;;29.40;99.90;;;;;;5090586;28;20161;-51
2023/06/21 12:13:27;;;;;;;7.47;5.00;;;29.50;99.90;;;;;;5090748;28;20176;-51
2023/06/21 12:15:54;;;;;;;8.68;5.05;;;29.50;99.90;;;;;;5072759;28;20644;-51
2023/06/21 12:18:20;;;;;;;7.07;4.60;;;29.40;99.90;;;;;;5093554;28;20238;-50
2023/06/21 12:20:47;;;;;;;5.38;4.85;;;29.70;99.90;;;;;;5094677;28;20165;-49
2023/06/21 12:23:13;;;;;;;5.72;4.70;;;;;;;;;;5094833;28;20172;-50
2023/06/21 12:26:05;;;;;;;6.32;5.65;;;30.50;99.90;;;;;;5094636;28;20169;-51
2023/06/21 12:28:32;;;;;;;8.85;5.22;;;;;;;;;;5089378;28;20512;-49
2023/06/21 12:31:05;;;;;;;8.25;5.05;;;30.60;99.90;;;;;;5094473;28;20252;-50
2023/06/21 12:33:32;;;;;;;10.38;5.13;;;;;;;;;;5093207;28;20188;-51
2023/06/21 12:36:12;;;;;;;5.00;4.35;;;30.70;99.90;;;;;;5094131;28;20196;-50
2023/06/21 12:38:38;;;;;;;10.90;5.20;;;30.90;99.90;;;;;;5094573;28;20175;-50
2023/06/21 12:41:03;;;;;;;6.38;4.32;;;30.60;99.90;;;;;;5094215;28;20519;-49
2023/06/21 12:43:36;;;;;;;5.90;4.68;;;30.40;99.90;;;;;;5094231;28;20247;-50
2023/06/21 12:46:06;;;;;;;6.38;4.60;;;30.40;99.90;;;;;;5094278;28;20207;-49
2023/06/21 12:48:33;;;;;;;8.02;4.53;;;30.20;99.90;;;;;;5093969;28;20165;-51
2023/06/21 12:50:59;;;;;;;6.45;4.60;;;30.30;99.90;;;;;;5094258;28;20252;-52
2023/06/21 12:53:29;;;;;;;6.55;4.43;;;;;;;;;;5094025;28;20256;-51
2023/06/21 12:55:56;;;;;;;5.20;4.70;;;;;;;;;;5094479;28;20562;-49
2023/06/21 12:58:21;;;;;;;5.30;4.38;;;30.50;99.90;;;;;;5094551;28;20172;-52
2023/06/21 13:00:48;;;;;;;6.65;3.95;;;30.60;99.90;;;;;;5075781;28;20165;-51
2023/06/21 13:03:15;;;;;;;5.00;4.60;;;;;;;;;;5094103;28;20234;-51
2023/06/21 13:05:41;;;;;;;5.78;4.70;;;;;;;;;;5093521;28;20168;-49
2023/06/21 13:08:07;;;;;;;8.50;5.30;;;;;;;;;;5072879;28;20216;-50
2023/06/21 13:10:33;;;;;;;10.60;4.30;;;;;;;;;;5071624;28;20209;-53
2023/06/21 13:12:59;;;;;;;4.65;4.20;;;;;;;;;;5072550;28;20576;-52
2023/06/21 13:15:25;;;;;;;4.68;4.13;;;;;;;;;;5072853;28;20561;-49
2023/06/21 13:17:51;;;;;;;5.25;3.90;;;;;;;;;;5072520;28;20504;-52
2023/06/21 13:20:17;;;;;;;4.78;4.30;;;30.40;99.90;;;;;;5072083;28;20257;-51
2023/06/21 13:22:42;;;;;;;6.50;3.95;;;30.60;99.90;;;;;;5073360;28;20170;-50
2023/06/21 13:25:08;;;;;;;4.88;4.15;;;;;;;;;;5073237;28;20169;-51
2023/06/21 13:27:35;;;;;;;4.15;3.75;;;30.50;99.90;;;;;;5072985;28;20165;-50
2023/06/21 13:30:04;;;;;;;5.93;4.20;;;;;;;;;;5072728;28;20284;-51
2023/06/21 13:32:30;;;;;;;4.85;4.45;;;;;;;;;;5071182;28;20158;-50